Portada
METAR-TAF:

METAR-TAF

Aeropuertos :

Aeropuerto de Murcia-San Javier

Murcia, España

latitud: 37-47N, longitud: 000-48W, altitud: 5 m

Observación

El informe se hizo hace 34 minutos, a las 21:30 UTC
Viento 5 kt del oeste
Temperatura 16°C
Humedad 77%
Presión 1018 hPa
Visibilidad 10 km o más

METAR: LELC 162130Z AUTO 26005KT 9999 NCD 16/12 Q1018

Hora: 00:04 (22:04 UTC)

Pronóstico

El informe se hizo hace 5 horas y 4 minutos, a las 17:00 UTC
Pronóstico válido del 16 a las 18 UTC al 17 a las 18 UTC
Viento 7 kt del sur-suroeste
Visibilidad 10 km o más
sin nubes por debajo de 1500 m y sin presencia de cumulonimbus.

TAF: LELC 161700Z 1618/1718 21007KT CAVOK TX26/1714Z TN12/1706Z

Observaciones y pronósticos meteorológicos de más de 4000 aeropuertos (mensajes METAR y TAF).

Los puntos amarillos y rojos representan las estaciones disponibles.

Ponga el ratón en el punto deseado para ver el nombre de la estación.

Haga clic para ver las observaciones y los pronósticos meteorológicos.

Para cambiar el mapa : haga clic en los botones verdes con una cruz de color negro para hacer un zoom, en el botón verde con un guión para alejar o en las flechas verdes para mapas adyacentes.


METAR-TAF: